createdAt,value
2023-03-19T00:02:17.151Z,8.73
2023-03-19T00:04:46.194Z,9.75
2023-03-19T00:07:14.175Z,9.82
2023-03-19T00:09:41.829Z,10.07
2023-03-19T00:12:09.481Z,9.95
2023-03-19T00:14:36.759Z,9.45
2023-03-19T00:17:04.150Z,9.07
2023-03-19T00:19:31.522Z,9.55
2023-03-19T00:21:58.920Z,9.60
2023-03-19T00:24:26.307Z,9.80
2023-03-19T00:26:53.788Z,9.27
2023-03-19T00:29:21.707Z,8.95
2023-03-19T00:31:49.136Z,9.35
2023-03-19T00:34:19.548Z,8.45
2023-03-19T00:36:49.018Z,9.23
2023-03-19T00:39:16.504Z,8.27
2023-03-19T00:41:50.455Z,8.48
2023-03-19T00:44:19.199Z,8.77
2023-03-19T00:46:46.989Z,8.75
2023-03-19T00:49:14.314Z,8.25
2023-03-19T00:51:44.010Z,8.95
2023-03-19T00:54:12.275Z,9.45
2023-03-19T00:56:39.602Z,9.98
2023-03-19T00:59:06.990Z,10.55
2023-03-19T01:01:34.668Z,11.77
2023-03-19T01:04:02.839Z,11.90
2023-03-19T01:06:30.364Z,12.60
2023-03-19T01:08:57.652Z,11.70
2023-03-19T01:11:26.276Z,12.00
2023-03-19T01:13:54.076Z,12.25
2023-03-19T01:16:21.442Z,13.82
2023-03-19T01:18:48.767Z,12.85
2023-03-19T01:21:16.826Z,13.15
2023-03-19T01:23:49.402Z,16.48
2023-03-19T01:26:16.756Z,13.50
2023-03-19T01:28:44.859Z,15.02
2023-03-19T01:31:13.107Z,14.07
2023-03-19T01:34:15.641Z,14.90
2023-03-19T01:36:50.504Z,16.30
2023-03-19T01:39:23.175Z,15.82
2023-03-19T01:41:50.806Z,16.25
2023-03-19T01:44:45.042Z,17.30
2023-03-19T01:47:50.582Z,16.17
2023-03-19T01:50:29.594Z,17.45
2023-03-19T01:53:16.475Z,16.27
2023-03-19T01:56:03.645Z,19.15
2023-03-19T01:58:53.863Z,18.67
2023-03-19T02:01:39.249Z,19.00
2023-03-19T02:04:07.863Z,20.73
2023-03-19T02:06:37.716Z,18.95
2023-03-19T02:09:05.394Z,19.38
2023-03-19T02:11:33.284Z,19.25
2023-03-19T02:14:00.767Z,18.55
2023-03-19T02:16:28.152Z,18.08
2023-03-19T02:18:57.145Z,19.55
2023-03-19T02:21:24.424Z,17.73
2023-03-19T02:23:58.603Z,17.75
2023-03-19T02:26:43.328Z,18.73
2023-03-19T02:29:10.923Z,18.10
2023-03-19T02:31:38.433Z,18.05
2023-03-19T02:34:21.679Z,17.23
2023-03-19T02:36:55.085Z,17.85
2023-03-19T02:39:28.653Z,15.48
2023-03-19T02:41:57.599Z,20.38
2023-03-19T02:44:27.070Z,19.25
2023-03-19T02:46:54.667Z,18.98
2023-03-19T02:49:22.001Z,19.88
2023-03-19T02:51:49.398Z,20.40
2023-03-19T02:54:16.725Z,17.25
2023-03-19T02:56:43.990Z,17.63
2023-03-19T02:59:11.254Z,17.02
2023-03-19T03:01:39.077Z,17.92
2023-03-19T03:04:06.517Z,16.65
2023-03-19T03:06:33.838Z,16.58
2023-03-19T03:09:03.618Z,17.92
2023-03-19T03:11:31.095Z,16.98
2023-03-19T03:13:58.383Z,16.23
2023-03-19T03:16:27.651Z,17.38
2023-03-19T03:18:55.075Z,16.65
2023-03-19T03:21:22.391Z,14.88
2023-03-19T03:23:49.966Z,16.63
2023-03-19T03:26:17.336Z,16.75
2023-03-19T03:28:44.789Z,18.02
2023-03-19T03:31:12.198Z,16.60
2023-03-19T03:33:40.155Z,17.35
2023-03-19T03:36:08.465Z,19.35
2023-03-19T03:38:35.946Z,19.50
2023-03-19T03:41:03.248Z,17.50
2023-03-19T03:43:30.731Z,20.13
2023-03-19T03:45:59.294Z,18.02
2023-03-19T03:48:27.296Z,18.35
2023-03-19T03:50:54.826Z,19.92
2023-03-19T03:53:26.540Z,22.65
2023-03-19T03:55:53.837Z,17.88
2023-03-19T03:58:24.919Z,19.65
2023-03-19T04:00:52.477Z,20.85
2023-03-19T04:03:19.924Z,18.92
2023-03-19T04:05:47.309Z,19.15
2023-03-19T04:08:14.848Z,21.27
2023-03-19T04:10:43.779Z,20.13
2023-03-19T04:13:11.648Z,22.00
2023-03-19T04:15:39.568Z,19.77
2023-03-19T04:18:06.984Z,19.35
2023-03-19T04:20:34.685Z,22.15
2023-03-19T04:23:02.223Z,23.83
2023-03-19T04:25:30.524Z,22.95
2023-03-19T04:27:58.508Z,22.30
2023-03-19T04:30:28.306Z,22.08
2023-03-19T04:32:56.874Z,22.58
2023-03-19T04:35:24.352Z,25.10
2023-03-19T04:37:51.682Z,24.13
2023-03-19T04:40:21.240Z,22.52
2023-03-19T04:42:50.111Z,23.70
2023-03-19T04:45:37.772Z,23.00
2023-03-19T04:48:06.970Z,23.60
2023-03-19T04:50:35.607Z,25.80
2023-03-19T04:53:04.143Z,25.45
2023-03-19T04:55:31.608Z,25.58
2023-03-19T04:58:05.218Z,24.38
2023-03-19T05:00:35.432Z,27.45
2023-03-19T05:03:03.278Z,28.27
2023-03-19T05:08:01.128Z,28.77
2023-03-19T05:10:29.139Z,31.02
2023-03-19T05:12:57.267Z,31.90
2023-03-19T05:15:24.913Z,35.45
2023-03-19T05:18:02.801Z,31.38
2023-03-19T05:20:36.079Z,32.45
2023-03-19T05:23:07.485Z,31.58
2023-03-19T05:25:42.860Z,35.47
2023-03-19T05:28:13.110Z,33.35
2023-03-19T05:30:41.422Z,37.28
2023-03-19T05:33:17.592Z,35.28
2023-03-19T05:35:47.083Z,39.50
2023-03-19T05:38:27.108Z,35.90
2023-03-19T05:41:04.877Z,36.63
2023-03-19T05:43:41.777Z,39.13
2023-03-19T05:46:14.580Z,38.47
2023-03-19T05:48:42.241Z,39.60
2023-03-19T05:51:10.121Z,42.22
2023-03-19T05:53:41.725Z,40.50
2023-03-19T05:56:30.873Z,38.72
2023-03-19T05:59:21.066Z,42.13
2023-03-19T06:02:00.876Z,40.33
2023-03-19T06:04:28.939Z,41.15
2023-03-19T06:06:56.515Z,41.40
2023-03-19T06:09:24.373Z,39.45
2023-03-19T06:11:55.942Z,40.53
2023-03-19T06:14:41.727Z,42.03
2023-03-19T06:17:32.013Z,41.35
2023-03-19T06:20:04.415Z,42.53
2023-03-19T06:22:31.795Z,42.53
2023-03-19T06:24:59.241Z,38.67
2023-03-19T06:27:27.072Z,45.45
2023-03-19T06:30:03.436Z,42.85
2023-03-19T06:32:33.592Z,43.30
2023-03-19T06:35:06.516Z,47.30
2023-03-19T06:37:34.063Z,40.10
2023-03-19T06:40:01.499Z,43.17
2023-03-19T06:42:28.834Z,41.78
2023-03-19T06:44:56.448Z,41.20
2023-03-19T06:47:23.728Z,35.38
2023-03-19T06:49:51.478Z,35.92
2023-03-19T06:52:18.817Z,34.47
2023-03-19T06:54:46.548Z,38.05
2023-03-19T06:57:13.802Z,35.63
2023-03-19T06:59:41.118Z,36.17
2023-03-19T07:02:10.558Z,38.60
2023-03-19T07:04:37.828Z,33.88
2023-03-19T07:07:05.999Z,34.88
2023-03-19T07:09:33.434Z,34.88
2023-03-19T07:12:00.830Z,34.53
2023-03-19T07:14:30.874Z,36.95
2023-03-19T07:16:58.370Z,36.20
2023-03-19T07:19:25.698Z,36.90
2023-03-19T07:21:52.994Z,35.05
2023-03-19T07:24:20.411Z,38.00
2023-03-19T07:26:47.853Z,38.80
2023-03-19T07:29:15.643Z,37.33
2023-03-19T07:31:43.028Z,36.70
2023-03-19T07:34:10.395Z,33.95
2023-03-19T07:36:37.714Z,33.92
2023-03-19T07:39:04.998Z,34.03
2023-03-19T07:41:32.320Z,34.13
2023-03-19T07:43:59.719Z,32.42
2023-03-19T07:46:27.051Z,32.08
2023-03-19T07:48:54.588Z,32.70
2023-03-19T07:51:22.041Z,32.78
2023-03-19T07:53:49.373Z,26.17
2023-03-19T07:56:16.628Z,26.08
2023-03-19T07:58:43.936Z,30.27
2023-03-19T08:01:11.293Z,29.58
2023-03-19T08:03:39.497Z,28.50
2023-03-19T08:06:08.395Z,26.08
2023-03-19T08:08:35.882Z,25.85
2023-03-19T08:11:03.609Z,24.33
2023-03-19T08:13:31.687Z,27.95
2023-03-19T08:15:59.039Z,26.58
2023-03-19T08:18:27.131Z,26.75
2023-03-19T08:20:54.399Z,27.63
2023-03-19T08:23:21.761Z,29.08
2023-03-19T08:25:51.691Z,29.65
2023-03-19T08:28:19.066Z,31.70
2023-03-19T08:30:46.621Z,32.65
2023-03-19T08:33:14.181Z,31.65
2023-03-19T08:35:41.697Z,35.63
2023-03-19T08:38:09.021Z,33.97
2023-03-19T08:40:36.658Z,32.33
2023-03-19T08:43:04.206Z,36.20
2023-03-19T08:45:31.571Z,31.77
2023-03-19T08:47:58.894Z,32.45
2023-03-19T08:50:26.354Z,34.25
2023-03-19T08:52:53.909Z,32.05
2023-03-19T08:55:21.242Z,36.72
2023-03-19T08:57:48.574Z,37.10
2023-03-19T09:00:16.284Z,37.63
2023-03-19T09:02:43.571Z,39.38
2023-03-19T09:05:10.840Z,40.28
2023-03-19T09:07:38.206Z,37.30
2023-03-19T09:10:05.770Z,38.25
2023-03-19T09:12:33.422Z,37.55
2023-03-19T09:15:00.705Z,42.20
2023-03-19T09:17:27.998Z,37.35
2023-03-19T09:19:55.448Z,36.38
2023-03-19T09:22:22.745Z,37.47
2023-03-19T09:24:50.219Z,40.83
2023-03-19T09:27:19.180Z,38.65
2023-03-19T09:29:46.742Z,35.20
2023-03-19T09:32:14.123Z,33.70
2023-03-19T09:34:41.418Z,37.05
2023-03-19T09:37:11.668Z,36.47
2023-03-19T09:39:38.965Z,38.88
2023-03-19T09:42:06.933Z,41.08
2023-03-19T09:44:39.541Z,35.80
2023-03-19T09:47:10.034Z,39.60
2023-03-19T09:49:40.635Z,40.15
2023-03-19T09:52:09.610Z,37.92
2023-03-19T09:54:46.456Z,36.58
2023-03-19T09:57:15.166Z,37.67
2023-03-19T09:59:42.657Z,39.75
2023-03-19T10:02:13.182Z,37.88
2023-03-19T10:04:43.098Z,35.30
2023-03-19T10:07:23.063Z,36.78
2023-03-19T10:10:09.222Z,35.05
2023-03-19T10:12:40.136Z,33.33
2023-03-19T10:15:22.097Z,34.53
2023-03-19T10:17:55.687Z,34.22
2023-03-19T10:20:32.397Z,28.67
2023-03-19T10:23:11.422Z,27.17
2023-03-19T10:25:41.585Z,27.15
2023-03-19T10:28:16.917Z,31.00
2023-03-19T10:30:46.635Z,30.25
2023-03-19T10:33:20.775Z,27.73
2023-03-19T10:35:50.452Z,28.38
2023-03-19T10:38:27.384Z,28.90
2023-03-19T10:40:57.899Z,30.33
2023-03-19T10:43:26.582Z,25.77
2023-03-19T10:45:54.323Z,29.33
2023-03-19T10:48:27.969Z,25.10
2023-03-19T10:51:00.634Z,21.52
2023-03-19T10:53:30.868Z,21.05
2023-03-19T10:56:01.634Z,24.90
2023-03-19T10:58:30.713Z,21.92
2023-03-19T11:00:59.394Z,23.85
2023-03-19T11:03:26.734Z,26.70
2023-03-19T11:06:04.287Z,26.77
2023-03-19T11:08:36.099Z,31.08
2023-03-19T11:11:04.091Z,30.08
2023-03-19T11:13:35.005Z,33.25
2023-03-19T11:16:05.712Z,31.10
2023-03-19T11:18:38.498Z,29.98
2023-03-19T11:21:22.194Z,27.15
2023-03-19T11:23:53.362Z,27.48
2023-03-19T11:26:21.747Z,25.25
2023-03-19T11:28:52.734Z,28.60
2023-03-19T11:31:29.084Z,27.13
2023-03-19T11:34:15.520Z,30.40
2023-03-19T11:36:54.493Z,29.33
2023-03-19T11:39:30.509Z,25.77
2023-03-19T11:41:57.873Z,32.22
2023-03-19T11:44:30.996Z,29.70
2023-03-19T11:47:06.820Z,31.75
2023-03-19T11:52:08.543Z,31.70
2023-03-19T11:54:35.964Z,34.63
2023-03-19T11:57:09.404Z,29.25
2023-03-19T11:59:59.272Z,34.42
2023-03-19T12:02:39.011Z,31.65
2023-03-19T12:05:15.727Z,30.63
2023-03-19T12:07:47.178Z,31.52
2023-03-19T12:10:30.194Z,28.15
2023-03-19T12:13:05.366Z,34.90
2023-03-19T12:15:56.026Z,32.25
2023-03-19T12:18:29.711Z,30.83
2023-03-19T12:21:02.836Z,28.02
2023-03-19T12:23:39.948Z,30.40
2023-03-19T12:26:08.973Z,29.65
2023-03-19T12:28:41.379Z,31.38
2023-03-19T12:31:27.969Z,30.50
2023-03-19T12:33:58.914Z,34.30
2023-03-19T12:36:28.971Z,31.95
2023-03-19T12:38:59.559Z,30.40
2023-03-19T12:41:31.457Z,34.60
2023-03-19T12:43:58.879Z,32.30
2023-03-19T12:46:59.617Z,33.17
2023-03-19T12:49:32.730Z,34.63
2023-03-19T12:52:23.789Z,34.83
2023-03-19T12:54:57.448Z,36.97
2023-03-19T12:57:44.981Z,40.10
2023-03-19T13:00:22.339Z,33.67
2023-03-19T13:02:59.279Z,37.00
2023-03-19T13:05:33.187Z,34.53
2023-03-19T13:08:00.527Z,33.95
2023-03-19T13:10:28.394Z,35.38
2023-03-19T13:12:56.248Z,34.13
2023-03-19T13:15:23.607Z,29.52
2023-03-19T13:17:54.366Z,29.63
2023-03-19T13:20:26.271Z,28.42
2023-03-19T13:22:58.823Z,29.05
2023-03-19T13:25:32.291Z,29.08
2023-03-19T13:28:00.526Z,27.13
2023-03-19T13:30:28.051Z,27.55
2023-03-19T13:33:05.724Z,25.50
2023-03-19T13:35:45.001Z,27.88
2023-03-19T13:38:15.626Z,28.88
2023-03-19T13:40:44.217Z,27.65
2023-03-19T13:43:28.019Z,27.48
2023-03-19T13:46:08.230Z,24.50
2023-03-19T13:48:58.539Z,22.38
2023-03-19T13:51:30.629Z,20.83
2023-03-19T13:54:02.484Z,20.50
2023-03-19T13:56:30.912Z,21.67
2023-03-19T13:59:17.965Z,20.80
2023-03-19T14:01:47.794Z,23.33
2023-03-19T14:04:25.834Z,25.17
2023-03-19T14:06:55.960Z,26.17
2023-03-19T14:09:31.442Z,24.15
2023-03-19T14:12:12.285Z,25.17
2023-03-19T14:14:44.945Z,26.77
2023-03-19T14:17:24.543Z,24.60
2023-03-19T14:19:53.153Z,25.17
2023-03-19T14:22:36.713Z,26.83
2023-03-19T14:25:05.952Z,25.27
2023-03-19T14:27:33.764Z,22.10
2023-03-19T14:30:03.340Z,23.35
2023-03-19T14:32:35.865Z,24.48
2023-03-19T14:35:05.814Z,23.40
2023-03-19T14:37:39.559Z,22.67
2023-03-19T14:40:15.978Z,23.58
2023-03-19T14:42:43.271Z,24.35
2023-03-19T14:45:14.596Z,20.70
2023-03-19T14:48:11.517Z,22.48
2023-03-19T14:50:56.991Z,22.55
2023-03-19T14:53:39.998Z,21.60
2023-03-19T14:56:12.081Z,21.60
2023-03-19T14:58:47.868Z,21.50
2023-03-19T15:01:15.424Z,20.15
2023-03-19T15:03:43.171Z,21.02
2023-03-19T15:06:13.205Z,20.77
2023-03-19T15:08:41.553Z,20.95
2023-03-19T15:11:21.291Z,21.60
2023-03-19T15:13:57.747Z,19.88
2023-03-19T15:16:48.353Z,22.63
2023-03-19T15:19:18.630Z,22.08
2023-03-19T15:21:48.229Z,21.25
2023-03-19T15:24:16.140Z,19.85
2023-03-19T15:26:44.261Z,21.67
2023-03-19T15:29:13.583Z,18.65
2023-03-19T15:31:51.635Z,21.55
2023-03-19T15:34:22.702Z,18.52
2023-03-19T15:36:53.602Z,18.38
2023-03-19T15:39:22.248Z,15.90
2023-03-19T15:41:50.886Z,16.73
2023-03-19T15:44:21.497Z,18.83
2023-03-19T15:46:49.818Z,19.00
2023-03-19T15:49:27.738Z,22.57
2023-03-19T15:51:58.007Z,20.67
2023-03-19T15:54:25.977Z,18.73
2023-03-19T15:56:53.605Z,19.77
2023-03-19T15:59:22.573Z,19.38
2023-03-19T16:01:51.094Z,19.80
2023-03-19T16:04:29.765Z,20.27
2023-03-19T16:06:58.597Z,19.17
2023-03-19T16:09:33.780Z,21.15
2023-03-19T16:12:01.729Z,18.33
2023-03-19T16:14:34.759Z,17.90
2023-03-19T16:17:12.840Z,20.00
2023-03-19T16:19:52.162Z,18.20
2023-03-19T16:22:24.236Z,21.08
2023-03-19T16:24:53.818Z,23.67
2023-03-19T16:27:22.912Z,21.27
2023-03-19T16:29:57.027Z,21.73
2023-03-19T16:32:26.213Z,21.35
2023-03-19T16:37:39.473Z,20.25
2023-03-19T16:40:10.040Z,18.02
2023-03-19T16:42:39.322Z,19.70
2023-03-19T16:47:34.505Z,19.35
2023-03-19T16:50:02.139Z,17.10
2023-03-19T16:52:29.794Z,20.65
2023-03-19T16:54:57.192Z,17.40
2023-03-19T16:57:24.728Z,19.10
2023-03-19T16:59:52.389Z,19.55
2023-03-19T17:02:19.976Z,19.50
2023-03-19T17:04:47.769Z,18.48
2023-03-19T17:07:15.340Z,20.10
2023-03-19T17:09:42.680Z,20.17
2023-03-19T17:12:17.157Z,17.45
2023-03-19T17:14:47.127Z,18.08
2023-03-19T17:17:18.718Z,20.05
2023-03-19T17:19:46.821Z,19.77
2023-03-19T17:22:14.519Z,19.63
2023-03-19T17:24:42.765Z,21.17
2023-03-19T17:27:11.721Z,19.08
2023-03-19T17:32:08.590Z,18.55
2023-03-19T17:34:36.862Z,20.10
2023-03-19T17:37:05.389Z,21.90
2023-03-19T17:39:33.288Z,22.00
2023-03-19T17:42:00.738Z,20.83
2023-03-19T17:44:28.358Z,21.73
2023-03-19T17:46:56.530Z,17.60
2023-03-19T17:49:24.122Z,16.95
2023-03-19T17:51:51.774Z,16.85
2023-03-19T17:54:19.951Z,15.82
2023-03-19T17:56:48.190Z,14.80
2023-03-19T17:59:15.890Z,12.27
2023-03-19T18:01:43.722Z,15.25
2023-03-19T18:04:15.829Z,13.88
2023-03-19T18:06:45.677Z,15.98
2023-03-19T18:09:23.831Z,14.38
2023-03-19T18:11:51.522Z,15.07
2023-03-19T18:14:19.163Z,14.10
2023-03-19T18:16:46.878Z,12.50
2023-03-19T18:19:19.582Z,13.88
2023-03-19T18:21:46.932Z,12.57
2023-03-19T18:24:14.245Z,12.55
2023-03-19T18:26:41.534Z,11.88
2023-03-19T18:29:09.161Z,10.77
2023-03-19T18:31:37.169Z,9.98
2023-03-19T18:34:06.611Z,9.50
2023-03-19T18:36:34.273Z,8.25
2023-03-19T18:39:01.627Z,11.70
2023-03-19T18:41:29.106Z,7.72
2023-03-19T18:44:05.933Z,10.00
2023-03-19T18:46:39.639Z,9.25
2023-03-19T18:49:16.101Z,9.40
2023-03-19T18:51:58.855Z,9.38
2023-03-19T18:54:30.793Z,9.85
2023-03-19T18:56:58.362Z,10.63
2023-03-19T18:59:26.824Z,10.45
2023-03-19T19:02:17.526Z,10.30
2023-03-19T19:04:45.003Z,9.82
2023-03-19T19:07:14.110Z,9.02
2023-03-19T19:09:41.454Z,11.15
2023-03-19T19:12:09.425Z,10.25
2023-03-19T19:14:36.876Z,11.23
2023-03-19T19:17:04.696Z,9.93
2023-03-19T19:19:32.020Z,9.82
2023-03-19T19:21:59.320Z,10.38
2023-03-19T19:24:26.698Z,12.27
2023-03-19T19:26:54.460Z,10.45
2023-03-19T19:29:24.039Z,11.60
2023-03-19T19:31:52.065Z,10.10
2023-03-19T19:34:19.462Z,10.13
2023-03-19T19:36:46.826Z,10.15
2023-03-19T19:39:14.095Z,10.38
2023-03-19T19:41:43.802Z,9.90
2023-03-19T19:44:20.954Z,11.15
2023-03-19T19:46:48.333Z,10.82
2023-03-19T19:49:15.725Z,10.65
2023-03-19T19:51:43.330Z,11.23
2023-03-19T19:54:10.885Z,10.52
2023-03-19T19:56:39.222Z,10.80
2023-03-19T19:59:08.124Z,10.80
2023-03-19T20:01:35.584Z,11.35
2023-03-19T20:04:04.247Z,10.38
2023-03-19T20:06:31.923Z,11.05
2023-03-19T20:08:59.264Z,10.40
2023-03-19T20:11:27.434Z,12.15
2023-03-19T20:13:55.964Z,12.23
2023-03-19T20:16:24.831Z,12.50
2023-03-19T20:18:53.881Z,9.60
2023-03-19T20:21:22.514Z,10.18
2023-03-19T20:23:53.095Z,11.25
2023-03-19T20:26:21.784Z,10.55
2023-03-19T20:28:49.258Z,10.77
2023-03-19T20:31:17.701Z,9.93
2023-03-19T20:33:45.284Z,9.95
2023-03-19T20:36:16.248Z,11.20
2023-03-19T20:38:43.633Z,11.13
2023-03-19T20:41:16.745Z,9.20
2023-03-19T20:43:44.086Z,11.25
2023-03-19T20:46:11.662Z,12.48
2023-03-19T20:48:39.105Z,12.30
2023-03-19T20:51:07.506Z,11.00
2023-03-19T20:53:37.457Z,9.67
2023-03-19T20:56:04.896Z,11.73
2023-03-19T20:58:35.215Z,10.70
2023-03-19T21:01:02.954Z,10.60
2023-03-19T21:03:31.400Z,10.60
2023-03-19T21:06:01.892Z,9.82
2023-03-19T21:08:43.183Z,10.00
2023-03-19T21:11:17.705Z,9.85
2023-03-19T21:13:49.429Z,10.88
2023-03-19T21:16:23.049Z,10.48
2023-03-19T21:18:54.829Z,11.70
2023-03-19T21:21:35.329Z,11.18
2023-03-19T21:24:06.054Z,11.32
2023-03-19T21:26:38.614Z,9.50
2023-03-19T21:29:31.871Z,9.82
2023-03-19T21:32:01.969Z,8.30
2023-03-19T21:34:31.284Z,10.18
2023-03-19T21:37:01.653Z,9.35
2023-03-19T21:39:32.372Z,10.38
2023-03-19T21:42:02.320Z,8.90
2023-03-19T21:44:31.341Z,8.88
2023-03-19T21:46:58.761Z,8.95
2023-03-19T21:49:26.271Z,7.82
2023-03-19T21:51:53.601Z,6.75
2023-03-19T21:54:21.125Z,6.63
2023-03-19T21:56:48.393Z,6.95
2023-03-19T21:59:17.077Z,7.65
2023-03-19T22:01:44.608Z,9.00
2023-03-19T22:04:12.217Z,5.65
2023-03-19T22:06:42.458Z,5.40
2023-03-19T22:09:09.796Z,5.45
2023-03-19T22:11:38.206Z,4.95
2023-03-19T22:14:26.825Z,5.00
2023-03-19T22:16:55.919Z,5.85
2023-03-19T22:19:23.850Z,4.90
2023-03-19T22:21:51.203Z,4.80
2023-03-19T22:24:18.853Z,5.72
2023-03-19T22:26:49.680Z,6.10
2023-03-19T22:29:19.251Z,5.85
2023-03-19T22:31:49.003Z,6.47
2023-03-19T22:34:18.045Z,6.82
2023-03-19T22:36:48.730Z,7.82
2023-03-19T22:39:16.050Z,7.47
2023-03-19T22:41:45.580Z,7.53
2023-03-19T22:44:33.258Z,7.88
2023-03-19T22:47:02.157Z,8.15
2023-03-19T22:49:29.941Z,6.60
2023-03-19T22:51:58.389Z,7.85
2023-03-19T22:54:26.120Z,9.70
2023-03-19T22:56:53.429Z,9.15
2023-03-19T22:59:20.709Z,7.32
2023-03-19T23:01:48.749Z,7.63
2023-03-19T23:04:16.660Z,9.50
2023-03-19T23:06:44.097Z,8.65
2023-03-19T23:09:19.599Z,10.38
2023-03-19T23:11:48.865Z,8.48
2023-03-19T23:14:28.359Z,8.98
2023-03-19T23:19:26.305Z,9.80
2023-03-19T23:24:21.265Z,8.98
2023-03-19T23:26:49.816Z,9.52
2023-03-19T23:29:24.334Z,9.75
2023-03-19T23:31:52.034Z,10.25
2023-03-19T23:34:19.607Z,9.27
2023-03-19T23:36:47.409Z,10.60
2023-03-19T23:39:15.317Z,9.32
2023-03-19T23:41:48.343Z,9.50
2023-03-19T23:44:16.774Z,7.45
2023-03-19T23:46:44.965Z,7.60
2023-03-19T23:49:15.974Z,9.80
2023-03-19T23:51:43.320Z,8.15
2023-03-19T23:54:33.775Z,8.20
2023-03-19T23:57:02.796Z,6.80
2023-03-19T23:59:31.686Z,8.15
